• Join FlightAware (Why Join?)
  • Login
  • US Flag 
06:15PM EDT


 

Airport Tracker/Info


-or-


 

Live Flight TrackerFlight Track Log ✈ FLG3429 ✈ 26-Jul-2013 ✈ KJFK - KJAX

Flight Track Log - Related Links

Times and Time Zones

All times are in EDT time to prevent confusion due to time zone crossing. See the FLG3429 flight status page for this flight to view local times or setup timezone preferences in your user account.

Time Position Orientation Groundspeed Altitude Reporting Facility
EDT Latitude Longitude Course Direction KTS MPH feet Rate Location/Type
08:07PM 40.6333 -73.8667 210° Southwest 181 208 2,400  Level New York TRACON
08:08PM 40.6000 -73.9000 217° Southwest 221 254 4,000 2,040 Climbing New York TRACON
08:09PM 40.5333 -73.9500 210° Southwest 272 313 6,300 2,460 Climbing New York TRACON
08:10PM 40.2591 -74.0551 207° Southwest  Level FlightAware Approximate
08:11PM 40.1619 -74.1199 207° Southwest  Level FlightAware Approximate
08:11PM 40.4211 -74.0153 204° Southwest 275 316 10,500  Level New York Center
08:12PM 40.0681 -74.1910 201° Southwest  Level FlightAware Approximate
08:12PM 40.3344 -74.0656 204° Southwest 299 344 12,100  Level New York Center
08:13PM 39.9784 -74.2704 210° Southwest  Level FlightAware Approximate
08:13PM 40.2539 -74.1161 206° Southwest 341 392 14,000  Level New York Center
08:15PM 40.0453 -74.2311 203° Southwest 368 423 17,800 1,740 Climbing Washington Center
08:16PM 39.9650 -74.3164 219° Southwest 375 432 19,700 1,800 Climbing Washington Center
08:17PM 39.8847 -74.4125 223° Southwest 386 444 21,400 1,500 Climbing Washington Center
08:18PM 39.8044 -74.5139 224° Southwest 397 457 22,700 1,500 Climbing Washington Center
08:19PM 39.7200 -74.6094 221° Southwest 407 468 24,500 1,320 Climbing Washington Center
08:20PM 39.6353 -74.7131 223° Southwest 414 476 25,400 1,320 Climbing Washington Center
08:21PM 39.5486 -74.8192 223° Southwest 419 482 27,300 1,320 Climbing Washington Center
08:22PM 39.4617 -74.9194 222° Southwest 424 488 28,100 960 Climbing Washington Center
08:23PM 39.3725 -75.0278 223° Southwest 429 494 29,300 1,020 Climbing Washington Center
08:24PM 39.2728 -75.1197 216° Southwest 435 501 30,200 900 Climbing Washington Center
08:25PM 39.1542 -75.1714 199° South 435 501 31,200 1,080 Climbing Washington Center
08:26PM 39.0336 -75.2256 199° South 448 516 32,400 1,380 Climbing Washington Center
08:27PM 38.9192 -75.2742 198° South 454 522 34,000 780 Climbing Washington Center
08:28PM 38.8003 -75.3225 198° South 448 516 34,000  Level Washington Center
08:29PM 38.6839 -75.3789 201° Southwest 443 510 34,000  Level Washington Center
08:30PM 38.5650 -75.4192 195° South 443 510 34,000  Level Washington Center
08:31PM 38.4461 -75.4672 198° South 443 510 34,000  Level Washington Center
08:32PM 38.3317 -75.5256 202° Southwest 443 510 34,000  Level Washington Center
08:33PM 38.2294 -75.6156 215° Southwest 443 510 34,000  Level Washington Center
08:34PM 38.1333 -75.7078 217° Southwest 443 510 34,000  Level Washington Center
08:35PM 38.0269 -75.8211 220° Southwest 448 516 34,000  Level Washington Center
08:36PM 37.9331 -75.8944 212° Southwest 448 516 34,000  Level Washington Center
08:37PM 37.8347 -75.9861 216° Southwest 453 521 34,000  Level Washington Center
08:38PM 37.7278 -76.0933 218° Southwest 458 527 34,000  Level Washington Center
08:39PM 37.6233 -76.1817 214° Southwest 458 527 34,000  Level Washington Center
08:40PM 37.5247 -76.2753 217° Southwest 458 527 34,000  Level Washington Center
08:41PM 37.4242 -76.3633 215° Southwest 452 520 34,000  Level Washington Center
08:42PM 37.3233 -76.4564 216° Southwest 452 520 34,000  Level Washington Center
08:43PM 37.2331 -76.5389 216° Southwest 457 526 34,000  Level Washington Center
08:44PM 37.1300 -76.6314 216° Southwest 457 526 34,000  Level Washington Center
08:45PM 37.0292 -76.7236 216° Southwest 457 526 34,000  Level Washington Center
08:46PM 36.9281 -76.8156 216° Southwest 457 526 34,000  Level Washington Center
08:47PM 36.8269 -76.9100 217° Southwest 457 526 34,000  Level Washington Center
08:48PM 36.7258 -76.9992 215° Southwest 457 526 34,000  Level Washington Center
08:49PM 36.6244 -77.0956 217° Southwest 457 526 34,000  Level Washington Center
08:50PM 36.5231 -77.1892 217° Southwest 457 526 34,000  Level Washington Center
08:51PM 36.4236 -77.2853 218° Southwest 457 526 34,000  Level Washington Center
08:52PM 36.3094 -77.3936 217° Southwest 468 539 34,000  Level Washington Center
08:53PM 36.2119 -77.4867 218° Southwest 468 539 34,000  Level Washington Center
08:54PM 36.1125 -77.5794 217° Southwest 454 522 34,000  Level Washington Center
08:55PM 36.0108 -77.6719 216° Southwest 454 522 34,000  Level Washington Center
08:56PM 35.9069 -77.7589 214° Southwest 454 522 34,000  Level Washington Center
08:57PM 35.8011 -77.8456 214° Southwest 459 528 34,000  Level Washington Center
08:58PM 35.6931 -77.9269 211° Southwest 464 534 34,000  Level Washington Center
08:59PM 35.5850 -78.0081 211° Southwest 464 534 34,000  Level Washington Center
09:00PM 35.4769 -78.0942 213° Southwest 464 534 34,000  Level Washington Center
09:01PM 35.3708 -78.1750 212° Southwest 464 534 34,000  Level Washington Center
09:02PM 35.2606 -78.2603 212° Southwest 464 534 34,000  Level Washington Center
09:03PM 35.1522 -78.3431 212° Southwest 464 534 34,000  Level Washington Center
09:04PM 35.0436 -78.4283 213° Southwest 464 534 34,000  Level Washington Center
09:06PM 34.7803 -78.6311 212° Southwest 452 520 34,000  Level Jacksonville Center
09:07PM 34.6725 -78.7147 213° Southwest 458 527 34,000  Level Jacksonville Center
09:08PM 34.5667 -78.7956 212° Southwest 463 533 34,000  Level Jacksonville Center
09:09PM 34.4733 -78.8706 214° Southwest 463 533 34,000  Level Jacksonville Center
09:10PM 34.3653 -78.9533 212° Southwest 458 527 34,000  Level Jacksonville Center
09:11PM 34.2594 -79.0336 212° Southwest 458 527 34,000  Level Jacksonville Center
09:12PM 34.1533 -79.1136 212° Southwest 458 527 34,000  Level Jacksonville Center
09:13PM 34.0450 -79.1908 211° Southwest 458 527 34,000  Level Jacksonville Center
09:14PM 33.9367 -79.2731 212° Southwest 464 534 34,000  Level Jacksonville Center
09:15PM 33.8244 -79.3553 211° Southwest 464 534 34,000  Level Jacksonville Center
09:16PM 33.7139 -79.4369 212° Southwest 449 517 34,000  Level Jacksonville Center
09:17PM 33.6033 -79.5161 211° Southwest 444 511 34,000  Level Jacksonville Center
09:18PM 33.4950 -79.5975 212° Southwest 449 517 34,000  Level Jacksonville Center
09:19PM 33.3864 -79.6761 211° Southwest 449 517 34,000 -60 Level Jacksonville Center
09:20PM 33.2800 -79.7569 212° Southwest 454 522 33,900 -1,260 Descending Jacksonville Center
09:21PM 33.1711 -79.8353 211° Southwest 454 522 31,500 -1,980 Descending Jacksonville Center
09:22PM 33.0644 -79.9108 211° Southwest 454 522 30,000 -780 Descending Jacksonville Center
09:23PM 32.9639 -79.9808 210° Southwest 464 534 30,000  Level Jacksonville Center
09:24PM 32.8511 -80.0686 213° Southwest 471 542 30,000  Level Jacksonville Center
09:25PM 32.7422 -80.1536 213° Southwest 476 548 30,000  Level Jacksonville Center
09:26PM 32.6314 -80.2433 214° Southwest 476 548 30,000  Level Jacksonville Center
09:27PM 32.5183 -80.3303 213° Southwest 481 554 30,000 -180 Level Jacksonville Center
09:28PM 32.4053 -80.4097 211° Southwest 481 554 29,700 -1,140 Descending Jacksonville Center
09:29PM 32.2917 -80.4694 204° Southwest 462 532 27,800 -2,160 Descending Jacksonville Center
09:30PM 32.1842 -80.5286 205° Southwest 443 510 25,400 -2,400 Descending Jacksonville Center
09:31PM 32.0706 -80.5931 206° Southwest 412 474 23,000 -2,160 Descending Jacksonville Center
09:32PM 31.9794 -80.6417 204° Southwest 406 467 21,100 -1,920 Descending Jacksonville Center
09:33PM 31.8700 -80.7006 205° Southwest 399 459 19,200 -1,800 Descending Jacksonville Center
09:34PM 31.7769 -80.7639 210° Southwest 387 445 17,600 -1,560 Descending Jacksonville Center
09:35PM 31.7008 -80.8219 213° Southwest 376 433 16,100 -1,800 Descending Jacksonville Center
09:36PM 31.6058 -80.8900 211° Southwest 364 419 14,100 -1,800 Descending Jacksonville Center
09:37PM 31.5211 -80.9503 211° Southwest 364 419 12,500 -1,080 Descending Jacksonville Center
09:38PM 31.4489 -81.0003 211° Southwest 356 410 12,000 -300 Descending Jacksonville Center
09:39PM 31.3581 -81.0678 212° Southwest 356 410 12,000  Level Jacksonville Center
09:40PM 31.2814 -81.1253 213° Southwest 362 417 12,000  Level Jacksonville Center
09:41PM 31.1967 -81.1853 211° Southwest 362 417 12,000 -300 Level Jacksonville Center
09:42PM 31.1181 -81.2425 212° Southwest 357 411 11,400 -1,080 Descending Jacksonville Center
09:43PM 31.0539 -81.2872 211° Southwest 287 330 10,100 -720 Descending Jacksonville Center
09:44PM 30.9711 -81.3492 213° Southwest 295 339 10,000  Descending Jacksonville Center
09:45PM 30.9008 -81.3964 210° Southwest 289 333 10,100 -600 Climbing Jacksonville Center
09:46PM 30.8325 -81.4458 212° Southwest 291 335 8,800 -1,380 Descending Jacksonville Center
09:47PM 30.7725 -81.4903 212° Southwest 295 339 7,400 -1,680 Descending Jacksonville Center
09:48PM 30.7083 -81.5372 212° Southwest 278 320 5,800 -1,380 Descending Jacksonville Center
09:49PM 30.6522 -81.5742 210° Southwest 226 260 4,900 -840 Descending Jacksonville Center
09:50PM 30.6047 -81.6278 224° Southwest 250 288 4,000 -420 Descending Jacksonville Center
09:51PM 30.5864 -81.6861 250° West 215 247 4,000 -540 Level Jacksonville Center
09:52PM 30.5642 -81.7394 244° Southwest 197 227 3,000 -960 Descending Jacksonville Center
09:54PM 30.5397 -81.8097 248° West 187 215 2,000 -480 Descending Jacksonville Center
09:55PM 30.5108 -81.8508 231° Southwest 190 219 2,000 -120 Level Jacksonville Center
09:55PM 30.4875 -81.8294 142° Southeast 147 169 1,800 -180 Descending Jacksonville Center
09:56PM 30.4725 -81.7839 111° Southeast 143 165 1,700 -480 Descending Jacksonville Center
09:57PM 30.4825 -81.7403 75° East 135 155 900 -840 Descending Jacksonville Center
09:58PM 30.4928 -81.7064 71° East 137 158 200 -780 Descending Jacksonville Center